Time;durP1;ratioP1;P1;durP2;ratioP2;P2;SDS_P1;SDS_P2;PMS_P1;PMS_P2;Temp;Humidity;BMP_temperature;BMP_pressure;BME280_temperature;BME280_humidity;BME280_pressure;Samples;Min_cycle;Max_cycle;Signal;HPM_P1;HPM_P2
2023/10/12 00:02:00;;;;;;;9.07;1.20;;;13.70;99.90;;;;;;4249477;27;20595;-80
2023/10/12 00:04:06;;;;;;;10.55;1.40;;;13.70;99.90;;;;;;4231340;28;20051;-80
2023/10/12 00:06:07;;;;;;;9.75;1.20;;;13.70;99.90;;;;;;4249469;27;20054;-80
2023/10/12 00:08:10;;;;;;;12.88;1.67;;;13.70;99.90;;;;;;4231291;28;20048;-80
2023/10/12 00:12:14;;;;;;;6.65;1.52;;;13.80;99.90;;;;;;4243022;27;20047;-80
2023/10/12 00:14:15;;;;;;;11.20;1.83;;;13.80;99.90;;;;;;4230751;28;20582;-80
2023/10/12 00:16:18;;;;;;;5.57;1.52;;;13.70;99.90;;;;;;4230932;28;20059;-80
2023/10/12 00:18:19;;;;;;;6.05;1.05;;;13.70;99.90;;;;;;4249341;27;20039;-80
2023/10/12 00:22:30;;;;;;;11.85;0.95;;;13.70;99.90;;;;;;4213721;28;20050;-80
2023/10/12 00:24:31;;;;;;;8.98;1.60;;;13.70;99.90;;;;;;4213967;28;20126;-81
2023/10/12 00:26:32;;;;;;;8.07;1.67;;;13.70;99.90;;;;;;4235419;27;20043;-80
2023/10/12 00:28:39;;;;;;;8.10;1.23;;;13.60;99.90;;;;;;4231616;28;20119;-80
2023/10/12 00:30:41;;;;;;;9.25;1.75;;;13.70;99.90;;;;;;4231355;28;20051;-80
2023/10/12 00:32:42;;;;;;;4.75;1.45;;;13.70;99.90;;;;;;4213715;28;20052;-80
2023/10/12 00:34:46;;;;;;;10.10;1.20;;;13.70;99.90;;;;;;4232031;28;20097;-80
2023/10/12 00:36:52;;;;;;;9.68;1.42;;;13.70;99.90;;;;;;4231556;28;20050;-80
2023/10/12 00:38:56;;;;;;;11.35;1.48;;;13.70;99.90;;;;;;4231785;28;20553;-80
2023/10/12 00:41:02;;;;;;;8.43;1.33;;;13.70;99.90;;;;;;4231867;28;20067;-80
2023/10/12 00:43:03;;;;;;;11.05;2.10;;;13.60;99.90;;;;;;4213750;28;20106;-80
2023/10/12 00:45:11;;;;;;;9.82;1.40;;;13.60;99.90;;;;;;4213646;28;20127;-81
2023/10/12 00:47:13;;;;;;;11.37;1.50;;;13.70;99.90;;;;;;4231974;28;20032;-81
2023/10/12 00:51:17;;;;;;;7.40;1.92;;;13.60;99.90;;;;;;4247998;27;20059;-81
2023/10/12 00:55:23;;;;;;;10.60;1.33;;;13.70;99.90;;;;;;4248682;27;20047;-81
2023/10/12 00:57:24;;;;;;;8.70;1.17;;;13.70;99.90;;;;;;4213320;28;20054;-81
2023/10/12 00:59:27;;;;;;;8.65;0.98;;;13.70;99.90;;;;;;4248812;27;20079;-81
2023/10/12 01:01:29;;;;;;;12.07;1.48;;;13.60;99.90;;;;;;4248842;27;20171;-81
2023/10/12 01:03:35;;;;;;;15.98;2.20;;;13.70;99.90;;;;;;4229999;28;20065;-81
2023/10/12 01:05:36;;;;;;;9.15;1.33;;;13.70;99.90;;;;;;4248480;27;20048;-81
2023/10/12 01:07:37;;;;;;;12.52;1.88;;;13.60;99.90;;;;;;4248524;27;20379;-81
2023/10/12 01:09:45;;;;;;;15.68;2.63;;;13.60;99.90;;;;;;4225398;28;20070;-81
2023/10/12 01:11:58;;;;;;;11.52;1.92;;;13.60;99.90;;;;;;4248146;27;20053;-81
2023/10/12 01:16:20;;;;;;;6.72;1.08;;;13.60;99.90;;;;;;4243684;27;20070;-81
2023/10/12 01:18:28;;;;;;;10.32;2.28;;;13.60;99.90;;;;;;4229817;28;20118;-81
2023/10/12 01:20:38;;;;;;;9.07;1.30;;;13.60;99.90;;;;;;4224236;28;20071;-81
2023/10/12 01:22:39;;;;;;;9.13;1.83;;;13.60;99.90;;;;;;4219861;28;20051;-81
2023/10/12 01:25:11;;;;;;;7.32;1.30;;;13.50;99.90;;;;;;4231259;28;20115;-81
2023/10/12 01:27:05;;;;;;;8.85;0.90;;;13.50;99.90;;;;;;4230119;28;20050;-81
2023/10/12 01:29:11;;;;;;;7.60;1.30;;;13.50;99.90;;;;;;4231296;28;20052;-81
2023/10/12 01:31:12;;;;;;;15.35;1.92;;;13.50;99.90;;;;;;4230521;28;20047;-81
2023/10/12 01:33:13;;;;;;;11.00;2.25;;;13.50;99.90;;;;;;4230925;28;20043;-81
2023/10/12 01:35:16;;;;;;;10.48;1.38;;;13.50;99.90;;;;;;4231097;28;20404;-81
2023/10/12 01:37:25;;;;;;;7.78;1.45;;;13.30;99.90;;;;;;4230951;28;20042;-81
2023/10/12 01:39:28;;;;;;;10.25;1.95;;;13.40;99.90;;;;;;4230923;28;20703;-81
2023/10/12 01:41:32;;;;;;;6.97;1.23;;;13.40;99.90;;;;;;4230898;28;20040;-81
2023/10/12 01:43:35;;;;;;;13.20;1.60;;;13.40;99.90;;;;;;4230815;28;20055;-80
2023/10/12 01:45:41;;;;;;;10.40;1.45;;;13.30;99.90;;;;;;4212886;28;20134;-80
2023/10/12 01:47:43;;;;;;;7.80;1.65;;;13.30;99.90;;;;;;4231093;28;20104;-80
2023/10/12 01:49:48;;;;;;;16.00;2.00;;;13.30;99.90;;;;;;4230806;28;20415;-80
2023/10/12 01:51:50;;;;;;;11.13;1.20;;;13.30;99.90;;;;;;4230718;28;20380;-80
2023/10/12 01:53:56;;;;;;;8.15;1.27;;;13.20;99.90;;;;;;4213007;28;20573;-80
2023/10/12 01:55:58;;;;;;;12.25;1.08;;;13.20;99.90;;;;;;4230950;28;20406;-80
2023/10/12 01:58:00;;;;;;;7.22;1.20;;;13.20;99.90;;;;;;4243760;28;20057;-80
2023/10/12 02:00:07;;;;;;;8.13;1.23;;;13.20;99.90;;;;;;4247990;28;20039;-81
2023/10/12 02:02:13;;;;;;;7.65;1.45;;;13.20;99.90;;;;;;4247936;28;20043;-80
2023/10/12 02:04:14;;;;;;;7.80;1.38;;;13.20;99.90;;;;;;4247646;28;20035;-80
2023/10/12 02:06:16;;;;;;;11.45;1.92;;;13.10;99.90;;;;;;4229076;28;20549;-80
2023/10/12 02:08:20;;;;;;;11.88;1.30;;;13.10;99.90;;;;;;4212595;28;20047;-80
2023/10/12 02:10:24;;;;;;;7.20;1.75;;;13.10;99.90;;;;;;4247859;28;20479;-80
2023/10/12 02:12:26;;;;;;;10.00;1.55;;;13.10;99.90;;;;;;4229680;28;20489;-80
2023/10/12 02:14:33;;;;;;;7.80;1.35;;;13.00;99.90;;;;;;4241396;28;20035;-80
2023/10/12 02:16:38;;;;;;;13.20;1.10;;;13.00;99.90;;;;;;4247666;28;20431;-81
2023/10/12 02:18:40;;;;;;;10.93;1.60;;;13.00;99.90;;;;;;4212594;28;20065;-80
2023/10/12 02:20:47;;;;;;;13.68;1.33;;;13.10;99.90;;;;;;4247850;28;20078;-80
2023/10/12 02:22:52;;;;;;;6.03;0.70;;;13.00;99.90;;;;;;4247807;28;20043;-80
2023/10/12 02:25:17;;;;;;;15.45;1.25;;;12.90;99.90;;;;;;4247432;28;20723;-80
2023/10/12 02:27:18;;;;;;;8.10;1.17;;;12.90;99.90;;;;;;4247740;28;20463;-80
2023/10/12 02:29:19;;;;;;;5.90;1.00;;;12.90;99.90;;;;;;4247812;28;20117;-80
2023/10/12 02:31:20;;;;;;;4.97;0.98;;;12.90;99.90;;;;;;4247407;28;20039;-80
2023/10/12 02:33:27;;;;;;;7.50;1.15;;;12.80;99.90;;;;;;4242432;28;20528;-80
2023/10/12 02:35:36;;;;;;;8.77;1.02;;;12.80;99.90;;;;;;4247576;28;20559;-80
2023/10/12 02:37:37;;;;;;;5.80;1.23;;;12.80;99.90;;;;;;4247267;28;20157;-80
2023/10/12 02:39:42;;;;;;;6.20;1.13;;;12.80;99.90;;;;;;4247276;27;20043;-80
2023/10/12 02:41:51;;;;;;;7.45;0.88;;;12.80;99.90;;;;;;4247619;28;20399;-80
2023/10/12 02:44:11;;;;;;;6.80;1.40;;;12.70;99.90;;;;;;4247778;28;20050;-80
2023/10/12 02:46:22;;;;;;;9.02;1.17;;;12.70;99.90;;;;;;4247587;28;20776;-80
2023/10/12 02:48:25;;;;;;;11.02;1.60;;;12.70;99.90;;;;;;4229097;28;20077;-80
2023/10/12 02:50:32;;;;;;;7.28;1.08;;;12.70;99.90;;;;;;4223065;28;20059;-80
2023/10/12 02:52:33;;;;;;;15.85;1.42;;;12.70;99.90;;;;;;4231239;28;20047;-80
2023/10/12 02:54:50;;;;;;;5.25;1.20;;;12.70;99.90;;;;;;4233563;28;20052;-80
2023/10/12 02:56:56;;;;;;;9.82;1.20;;;12.60;99.90;;;;;;4233526;28;20514;-80
2023/10/12 02:59:04;;;;;;;7.05;1.60;;;12.60;99.90;;;;;;4233313;28;20048;-80
2023/10/12 03:01:14;;;;;;;15.57;1.75;;;12.60;99.90;;;;;;4233318;28;20048;-81
2023/10/12 03:03:36;;;;;;;10.77;1.50;;;12.60;99.90;;;;;;4233230;28;20119;-81
2023/10/12 03:05:47;;;;;;;6.70;1.63;;;12.60;99.90;;;;;;4233661;28;20548;-81
2023/10/12 03:07:49;;;;;;;8.13;0.93;;;12.50;99.90;;;;;;4242156;27;20043;-81
2023/10/12 03:09:57;;;;;;;9.38;1.45;;;12.40;99.90;;;;;;4250221;27;20055;-81
2023/10/12 03:11:57;;;;;;;8.35;1.20;;;12.50;99.90;;;;;;4250621;27;20054;-81
2023/10/12 03:14:35;;;;;;;5.95;1.13;;;12.50;99.90;;;;;;4249985;27;20047;-81
2023/10/12 03:16:33;;;;;;;12.23;2.17;;;12.50;99.90;;;;;;4245294;27;20043;-83
2023/10/12 03:18:35;;;;;;;7.85;0.77;;;12.40;99.90;;;;;;4250457;27;20477;-81
2023/10/12 03:20:37;;;;;;;5.22;1.00;;;12.50;99.90;;;;;;4220918;28;20082;-81
2023/10/12 03:22:38;;;;;;;6.40;1.33;;;12.40;99.90;;;;;;4233098;28;20065;-81
2023/10/12 03:24:44;;;;;;;16.05;1.40;;;12.40;99.90;;;;;;4215050;28;20119;-81
2023/10/12 03:26:49;;;;;;;10.10;1.38;;;12.40;99.90;;;;;;4247160;27;20114;-81
2023/10/12 03:29:18;;;;;;;8.73;1.33;;;12.40;99.90;;;;;;4231741;28;20059;-81
2023/10/12 03:31:33;;;;;;;7.82;1.10;;;12.40;99.90;;;;;;4250015;27;20122;-81
2023/10/12 03:33:35;;;;;;;9.73;1.30;;;12.40;99.90;;;;;;4249935;27;20502;-81
2023/10/12 03:35:48;;;;;;;5.68;1.13;;;12.40;99.90;;;;;;4231770;28;20151;-81
2023/10/12 03:38:00;;;;;;;10.48;1.17;;;12.40;99.90;;;;;;4243169;27;20119;-81
2023/10/12 03:40:08;;;;;;;7.38;0.82;;;12.30;99.90;;;;;;4214462;28;20539;-80
2023/10/12 03:42:40;;;;;;;7.63;0.70;;;12.30;99.90;;;;;;4232698;28;20047;-80
2023/10/12 03:44:41;;;;;;;6.57;1.17;;;12.30;99.90;;;;;;4246449;27;20051;-81
2023/10/12 03:46:45;;;;;;;5.63;0.70;;;12.30;99.90;;;;;;4232861;28;20052;-81
2023/10/12 03:49:09;;;;;;;8.77;1.73;;;12.40;99.90;;;;;;4215607;28;20044;-81
2023/10/12 03:51:25;;;;;;;11.80;1.77;;;12.30;99.90;;;;;;4241597;27;20479;-81
2023/10/12 03:53:26;;;;;;;14.32;2.42;;;12.30;99.90;;;;;;4249011;27;20047;-81
2023/10/12 03:55:27;;;;;;;13.23;1.70;;;12.30;99.90;;;;;;4249578;27;20050;-81
2023/10/12 03:59:44;;;;;;;7.85;1.00;;;12.20;99.90;;;;;;4249590;27;20061;-81
2023/10/12 04:01:46;;;;;;;4.47;1.13;;;12.20;99.90;;;;;;4229183;28;20534;-81
2023/10/12 04:03:58;;;;;;;7.32;2.35;;;12.10;99.90;;;;;;4230259;28;20040;-81
2023/10/12 04:06:05;;;;;;;9.85;1.35;;;12.20;99.90;;;;;;4249553;27;20039;-81
2023/10/12 04:10:41;;;;;;;9.73;1.10;;;12.10;99.90;;;;;;4249043;27;20119;-81
2023/10/12 04:12:49;;;;;;;6.18;1.17;;;12.10;99.90;;;;;;4248558;27;20086;-81
2023/10/12 04:14:55;;;;;;;8.93;1.45;;;12.10;99.90;;;;;;4248946;27;20051;-81
2023/10/12 04:19:33;;;;;;;5.35;1.00;;;12.10;99.90;;;;;;4170685;28;20624;-81
2023/10/12 04:21:36;;;;;;;4.32;1.30;;;12.10;99.90;;;;;;4201042;28;20055;-81
2023/10/12 04:25:47;;;;;;;7.53;1.63;;;11.90;99.90;;;;;;4231659;28;20047;-81
2023/10/12 04:27:51;;;;;;;9.98;2.15;;;12.00;99.90;;;;;;4232080;28;20373;-81
2023/10/12 04:29:58;;;;;;;6.85;1.05;;;12.00;99.90;;;;;;4213925;28;20044;-81
2023/10/12 04:32:15;;;;;;;8.70;1.70;;;12.00;99.90;;;;;;4232192;28;20078;-81
2023/10/12 04:34:24;;;;;;;9.52;1.10;;;12.00;99.90;;;;;;4213926;28;20056;-81
2023/10/12 04:36:37;;;;;;;8.32;1.27;;;12.00;99.90;;;;;;4225911;28;20839;-81
2023/10/12 04:41:13;;;;;;;5.97;1.20;;;11.90;99.90;;;;;;4231711;28;20130;-81
2023/10/12 04:43:06;;;;;;;12.20;1.40;;;11.90;99.90;;;;;;4231626;28;20051;-81
2023/10/12 04:47:22;;;;;;;10.98;1.40;;;11.90;99.90;;;;;;4231540;28;20060;-81
2023/10/12 04:51:30;;;;;;;7.97;1.55;;;11.80;99.90;;;;;;4213312;28;20056;-81
2023/10/12 04:55:53;;;;;;;7.10;1.20;;;11.80;99.90;;;;;;4248376;27;20105;-81
2023/10/12 04:58:11;;;;;;;7.32;1.13;;;11.90;99.90;;;;;;4248533;27;20095;-81
2023/10/12 05:02:41;;;;;;;3.30;0.95;;;11.80;99.90;;;;;;4244839;27;20051;-81
2023/10/12 05:07:20;;;;;;;10.10;1.13;;;11.80;99.90;;;;;;4229620;28;20103;-81
2023/10/12 05:09:12;;;;;;;6.65;1.17;;;11.80;99.90;;;;;;4247979;27;20047;-81
2023/10/12 05:11:12;;;;;;;9.75;1.10;;;11.70;99.90;;;;;;4248450;27;20046;-81
2023/10/12 05:13:22;;;;;;;11.35;1.33;;;11.70;99.90;;;;;;4230232;28;20468;-81
2023/10/12 05:15:25;;;;;;;6.72;1.60;;;11.70;99.90;;;;;;4247569;27;20043;-81
2023/10/12 05:17:27;;;;;;;7.28;1.33;;;11.70;99.90;;;;;;4229938;28;20048;-81
2023/10/12 05:19:28;;;;;;;9.73;1.05;;;11.70;99.90;;;;;;4243592;27;20039;-82
2023/10/12 05:21:29;;;;;;;6.10;1.08;;;11.90;99.90;;;;;;4231079;28;20541;-80
2023/10/12 05:23:30;;;;;;;8.93;1.35;;;11.60;99.90;;;;;;4231253;28;20728;-80
2023/10/12 05:28:05;;;;;;;12.75;1.77;;;11.60;99.90;;;;;;4212752;28;20048;-79
2023/10/12 05:30:16;;;;;;;6.90;1.00;;;11.50;99.90;;;;;;4231280;28;20051;-80
2023/10/12 05:34:45;;;;;;;7.25;1.63;;;11.50;99.90;;;;;;4230908;28;20051;-80
2023/10/12 05:36:45;;;;;;;10.32;1.45;;;11.50;99.90;;;;;;4238243;27;20135;-80
2023/10/12 05:38:51;;;;;;;8.98;1.45;;;11.50;99.90;;;;;;4229145;28;20488;-80
2023/10/12 05:40:55;;;;;;;7.93;2.05;;;11.50;99.90;;;;;;4212875;28;20044;-81
2023/10/12 05:42:56;;;;;;;5.82;0.90;;;11.40;99.90;;;;;;4212814;28;20368;-82
2023/10/12 05:45:12;;;;;;;7.32;1.15;;;11.40;99.90;;;;;;4228700;28;20050;-82
2023/10/12 05:47:12;;;;;;;11.65;1.98;;;11.30;99.90;;;;;;4229241;28;20048;-82
2023/10/12 05:49:13;;;;;;;8.52;1.40;;;11.30;99.90;;;;;;4226249;28;20058;-83
2023/10/12 05:51:19;;;;;;;6.38;1.38;;;11.30;99.90;;;;;;4231231;28;20479;-84
2023/10/12 05:53:20;;;;;;;7.90;2.05;;;11.30;99.90;;;;;;4230999;28;20040;-84
2023/10/12 05:55:21;;;;;;;12.07;2.35;;;11.20;99.90;;;;;;4212361;28;20101;-83
2023/10/12 05:57:29;;;;;;;12.88;1.75;;;11.20;99.90;;;;;;4230171;28;20501;-82
2023/10/12 05:59:30;;;;;;;7.13;0.95;;;11.20;99.90;;;;;;4212946;28;20137;-81
2023/10/12 06:01:35;;;;;;;8.07;1.85;;;11.20;99.90;;;;;;4212636;28;20043;-82
2023/10/12 06:03:40;;;;;;;10.05;1.45;;;11.20;99.90;;;;;;4230853;28;20047;-83
2023/10/12 06:05:43;;;;;;;9.80;1.23;;;11.20;99.90;;;;;;4196273;28;20094;-81
2023/10/12 06:07:45;;;;;;;8.27;1.25;;;11.10;99.90;;;;;;4195894;28;20068;-82
2023/10/12 06:09:45;;;;;;;7.93;1.10;;;11.10;99.90;;;;;;4231175;28;20039;-82
2023/10/12 06:11:48;;;;;;;8.02;1.40;;;11.10;99.90;;;;;;4231253;28;20514;-83
2023/10/12 06:13:51;;;;;;;3.88;1.02;;;11.10;99.90;;;;;;4196518;28;20059;-82
2023/10/12 06:15:53;;;;;;;7.80;0.98;;;11.10;99.90;;;;;;4231081;28;20050;-81
2023/10/12 06:17:55;;;;;;;12.00;2.30;;;11.10;99.90;;;;;;4230714;28;20036;-82
2023/10/12 06:20:00;;;;;;;13.77;1.58;;;11.10;99.90;;;;;;4230552;28;20040;-83
2023/10/12 06:22:19;;;;;;;8.55;1.70;;;11.10;99.90;;;;;;4215961;28;20097;-84
2023/10/12 06:24:35;;;;;;;7.93;1.20;;;11.10;99.90;;;;;;4213095;28;20055;-83
2023/10/12 06:26:38;;;;;;;5.22;0.98;;;11.20;99.90;;;;;;4235894;27;20043;-83
2023/10/12 06:28:39;;;;;;;5.15;1.10;;;11.20;99.90;;;;;;4250651;27;20085;-83
2023/10/12 06:30:47;;;;;;;2.90;0.90;;;11.20;99.90;;;;;;4251189;27;20043;-83
2023/10/12 06:32:49;;;;;;;6.95;1.15;;;11.20;99.90;;;;;;4251336;27;20118;-83
2023/10/12 06:35:35;;;;;;;7.70;2.20;;;11.20;99.90;;;;;;4230104;28;20396;-83
2023/10/12 06:45:47;;;;;;;5.93;1.35;;;11.30;99.90;;;;;;4249763;27;20055;-83
2023/10/12 06:47:57;;;;;;;8.70;1.60;;;11.30;99.90;;;;;;4249076;27;20456;-83
2023/10/12 06:50:00;;;;;;;6.68;2.58;;;11.30;99.90;;;;;;4248313;27;20051;-83
2023/10/12 06:52:00;;;;;;;5.45;0.93;;;11.40;99.90;;;;;;4247932;27;20043;-83
2023/10/12 06:54:18;;;;;;;8.98;1.42;;;11.40;99.90;;;;;;4249326;27;20576;-83
2023/10/12 06:56:26;;;;;;;8.70;1.45;;;11.40;99.90;;;;;;4249364;27;20100;-83
2023/10/12 06:58:36;;;;;;;13.95;1.40;;;11.40;99.90;;;;;;4231378;28;20127;-83
2023/10/12 07:00:59;;;;;;;8.88;1.33;;;11.30;99.90;;;;;;4232101;28;20472;-83
2023/10/12 07:02:57;;;;;;;10.55;1.05;;;11.30;99.90;;;;;;4250523;27;20043;-82
2023/10/12 07:05:00;;;;;;;5.70;1.48;;;11.30;99.90;;;;;;4232068;28;20392;-83
2023/10/12 07:07:07;;;;;;;12.25;1.10;;;11.30;99.90;;;;;;4250293;27;20051;-83
2023/10/12 07:09:08;;;;;;;9.48;1.38;;;11.40;99.90;;;;;;4250310;27;20043;-83
2023/10/12 07:11:11;;;;;;;13.93;1.38;;;11.40;99.90;;;;;;4214510;28;20044;-83
2023/10/12 07:13:12;;;;;;;8.48;0.90;;;11.40;99.90;;;;;;4245190;27;20044;-83
2023/10/12 07:15:19;;;;;;;10.25;1.13;;;11.50;99.90;;;;;;4249866;27;20054;-83
2023/10/12 07:17:48;;;;;;;11.32;1.20;;;11.50;99.90;;;;;;4249979;27;20045;-83
2023/10/12 07:19:50;;;;;;;12.57;1.67;;;11.50;99.90;;;;;;4249333;27;20384;-83
2023/10/12 07:21:55;;;;;;;13.90;1.77;;;11.50;99.90;;;;;;4232094;28;20183;-83
2023/10/12 07:23:56;;;;;;;4.45;1.10;;;11.60;99.90;;;;;;4250304;27;20487;-83
2023/10/12 07:26:00;;;;;;;6.18;1.15;;;11.70;99.90;;;;;;4231867;28;20119;-83
2023/10/12 07:28:01;;;;;;;4.88;1.10;;;11.70;99.90;;;;;;4232388;28;20089;-84
2023/10/12 07:30:30;;;;;;;20.85;1.88;;;11.80;99.90;;;;;;4214447;28;20048;-83
2023/10/12 07:32:38;;;;;;;7.15;1.38;;;11.90;99.90;;;;;;4250300;27;20557;-83
2023/10/12 07:34:39;;;;;;;5.47;1.10;;;12.00;99.90;;;;;;4231786;28;20468;-83
2023/10/12 07:38:40;;;;;;;8.27;2.08;;;12.20;99.90;;;;;;4230985;28;20055;-82
2023/10/12 07:40:56;;;;;;;4.38;1.40;;;12.30;99.90;;;;;;4231664;28;20083;-83
2023/10/12 07:43:04;;;;;;;7.30;1.27;;;12.40;99.90;;;;;;4249620;27;20405;-83
2023/10/12 07:45:06;;;;;;;9.52;1.40;;;12.50;99.90;;;;;;4214639;28;20090;-83
2023/10/12 07:51:54;;;;;;;14.32;1.40;;;12.80;99.90;;;;;;4230620;28;20052;-83
2023/10/12 07:54:00;;;;;;;9.18;2.78;;;12.90;99.90;;;;;;4216425;28;20044;-83
2023/10/12 07:56:00;;;;;;;11.00;1.08;;;12.90;99.90;;;;;;4220626;28;20040;-82
2023/10/12 07:58:02;;;;;;;13.90;2.38;;;13.00;99.90;;;;;;4253767;27;20064;-83
2023/10/12 08:02:31;;;;;;;4.03;1.05;;;;;;;;;;4252734;28;20054;-82
2023/10/12 08:04:33;;;;;;;6.20;0.98;;;;;;;;;;4269322;27;20031;-81
2023/10/12 08:08:34;;;;;;;11.80;1.15;;;13.20;99.90;;;;;;4233336;28;20039;-82
2023/10/12 08:12:45;;;;;;;6.45;1.35;;;13.60;99.90;;;;;;4230739;28;20134;-82
2023/10/12 08:14:46;;;;;;;6.72;1.48;;;13.90;99.90;;;;;;4231421;28;20177;-82
2023/10/12 08:17:24;;;;;;;4.63;0.70;;;14.20;99.90;;;;;;4244230;27;20552;-82
2023/10/12 08:19:23;;;;;;;6.45;0.95;;;14.40;99.90;;;;;;4249126;27;20043;-82
2023/10/12 08:21:26;;;;;;;11.23;2.20;;;14.60;99.90;;;;;;4249357;27;20118;-82
2023/10/12 08:23:26;;;;;;;8.13;1.27;;;14.90;99.90;;;;;;4237087;27;20044;-85
2023/10/12 08:25:37;;;;;;;11.02;1.55;;;;;;;;;;4220055;28;20038;-87
2023/10/12 08:27:52;;;;;;;9.40;1.23;;;15.10;99.90;;;;;;4249398;27;20039;-88
2023/10/12 08:34:13;;;;;;;12.35;1.80;;;15.30;99.90;;;;;;4232719;28;20043;-87
2023/10/12 08:38:16;;;;;;;13.38;2.15;;;14.90;99.90;;;;;;4230841;28;20161;-88
2023/10/12 08:40:26;;;;;;;3.35;0.85;;;14.80;99.90;;;;;;4231606;28;20036;-87
2023/10/12 08:42:39;;;;;;;10.02;1.88;;;14.70;99.90;;;;;;4231585;28;20048;-87
2023/10/12 08:44:43;;;;;;;5.30;0.73;;;14.60;99.90;;;;;;4213850;28;20083;-87
2023/10/12 08:51:30;;;;;;;7.53;1.50;;;14.60;99.90;;;;;;4213081;28;20098;-86
2023/10/12 08:53:32;;;;;;;9.25;1.00;;;14.50;99.90;;;;;;4196430;28;20056;-86
2023/10/12 08:55:36;;;;;;;7.72;1.17;;;14.50;99.90;;;;;;4219977;28;20075;-86
2023/10/12 08:58:03;;;;;;;4.95;0.88;;;14.50;99.90;;;;;;4213704;28;20112;-86
2023/10/12 09:00:24;;;;;;;7.60;1.42;;;14.50;99.90;;;;;;4228271;28;20092;-87
2023/10/12 09:02:25;;;;;;;5.72;0.98;;;14.50;99.90;;;;;;4231761;28;20039;-86
2023/10/12 09:04:29;;;;;;;4.70;0.60;;;14.50;99.90;;;;;;4213621;28;20080;-87
2023/10/12 09:06:53;;;;;;;9.60;1.25;;;14.50;99.90;;;;;;4212871;28;20055;-87
2023/10/12 09:08:51;;;;;;;8.07;1.30;;;14.50;99.90;;;;;;4223601;28;20054;-87
2023/10/12 09:12:56;;;;;;;4.60;0.85;;;14.60;99.90;;;;;;4230383;28;20055;-87
2023/10/12 09:14:57;;;;;;;13.60;1.70;;;14.60;99.90;;;;;;4248346;27;20035;-86
2023/10/12 09:17:05;;;;;;;11.80;1.63;;;14.70;99.90;;;;;;4225938;28;20051;-88
2023/10/12 09:19:28;;;;;;;6.55;0.90;;;14.80;99.90;;;;;;4212990;28;20044;-88
2023/10/12 09:21:57;;;;;;;8.07;0.77;;;15.00;99.90;;;;;;4230986;28;20098;-87
2023/10/12 09:26:30;;;;;;;14.68;1.50;;;15.70;99.90;;;;;;4221258;28;20285;-87
2023/10/12 09:28:42;;;;;;;7.65;1.20;;;16.00;99.90;;;;;;4215211;28;20047;-87
2023/10/12 09:30:45;;;;;;;6.75;1.08;;;16.20;99.90;;;;;;4249780;27;20914;-88
2023/10/12 09:33:05;;;;;;;8.13;1.45;;;16.40;99.90;;;;;;4217220;28;20055;-88
2023/10/12 09:35:11;;;;;;;7.78;1.35;;;;;;;;;;4238760;27;20131;-88
2023/10/12 09:37:18;;;;;;;5.25;1.42;;;;;;;;;;4232132;28;20039;-88
2023/10/12 09:39:25;;;;;;;10.55;0.90;;;17.10;99.90;;;;;;4197420;28;20040;-88
2023/10/12 09:41:32;;;;;;;8.68;1.10;;;18.00;99.90;;;;;;4214274;28;20052;-88
2023/10/12 09:43:40;;;;;;;11.65;1.17;;;18.00;99.90;;;;;;4197822;28;20408;-86
2023/10/12 09:45:44;;;;;;;8.32;1.08;;;18.00;99.90;;;;;;4214038;28;20044;-86
2023/10/12 09:47:53;;;;;;;8.57;1.13;;;18.00;99.90;;;;;;4197030;28;20048;-86
2023/10/12 09:49:55;;;;;;;17.50;1.13;;;18.00;99.90;;;;;;4196681;28;20040;-86
2023/10/12 09:51:59;;;;;;;5.47;0.65;;;17.80;99.90;;;;;;4215721;28;20071;-86
2023/10/12 09:54:05;;;;;;;6.10;1.23;;;17.70;99.90;;;;;;4214635;28;20044;-86
2023/10/12 09:58:22;;;;;;;7.05;0.98;;;17.80;99.90;;;;;;4214603;28;20482;-87
2023/10/12 10:00:53;;;;;;;8.77;1.30;;;18.00;99.90;;;;;;4205451;28;20044;-88
2023/10/12 10:02:55;;;;;;;6.18;1.30;;;18.10;99.90;;;;;;4221208;28;20058;-87
2023/10/12 10:05:51;;;;;;;6.68;0.85;;;18.00;99.90;;;;;;4199391;28;20052;-87
2023/10/12 10:07:26;;;;;;;6.15;0.80;;;18.20;99.90;;;;;;4214642;28;20079;-87
2023/10/12 10:11:31;;;;;;;5.35;1.50;;;18.50;99.90;;;;;;4228122;28;20130;-88
2023/10/12 10:13:46;;;;;;;8.13;1.75;;;;;;;;;;4223815;28;20047;-88
2023/10/12 10:15:59;;;;;;;4.82;0.85;;;;;;;;;;4236642;27;20050;-88
2023/10/12 10:18:01;;;;;;;6.20;0.68;;;;;;;;;;4219894;28;20056;-88
2023/10/12 10:22:31;;;;;;;8.40;0.80;;;;;;;;;;4209797;28;20519;-87
2023/10/12 10:24:43;;;;;;;10.82;2.50;;;;;;;;;;4215260;28;20516;-87
2023/10/12 10:26:47;;;;;;;3.10;0.80;;;;;;;;;;4219071;28;20052;-88
2023/10/12 10:28:55;;;;;;;8.25;0.90;;;;;;;;;;4219448;28;20055;-88
2023/10/12 10:30:59;;;;;;;5.25;0.98;;;;;;;;;;4215172;28;20055;-88
2023/10/12 10:33:12;;;;;;;7.22;0.90;;;;;;;;;;4229517;28;20036;-80
2023/10/12 10:35:18;;;;;;;6.20;1.15;;;;;;;;;;4216882;28;20071;-85
2023/10/12 10:37:47;;;;;;;7.25;0.98;;;;;;;;;;4215970;28;20524;-85
2023/10/12 10:39:49;;;;;;;4.75;1.00;;;;;;;;;;4217652;28;20040;-85
2023/10/12 10:43:53;;;;;;;8.38;1.02;;;;;;;;;;4233664;28;20044;-85
2023/10/12 10:45:57;;;;;;;9.73;1.40;;;;;;;;;;4230907;28;20453;-87
2023/10/12 10:47:58;;;;;;;2.78;0.60;;;;;;;;;;4232301;28;20108;-84
2023/10/12 10:50:00;;;;;;;6.97;1.00;;;;;;;;;;4215699;28;20464;-87
2023/10/12 10:54:18;;;;;;;12.07;1.20;;;;;;;;;;4233402;28;20052;-87
2023/10/12 10:56:35;;;;;;;3.95;0.90;;;;;;;;;;4216078;28;20036;-87
2023/10/12 10:58:37;;;;;;;5.05;1.17;;;;;;;;;;4228006;28;20509;-87
2023/10/12 11:00:45;;;;;;;7.75;0.85;;;;;;;;;;4234168;28;20139;-87
2023/10/12 11:02:47;;;;;;;6.30;0.85;;;;;;;;;;4215325;28;20044;-84
2023/10/12 11:04:51;;;;;;;5.05;0.90;;;;;;;;;;4229032;28;20039;-87
2023/10/12 11:06:53;;;;;;;5.50;0.80;;;;;;;;;;4250819;28;20082;-87
2023/10/12 11:09:09;;;;;;;8.30;2.05;;;;;;;;;;4251444;28;20090;-85
2023/10/12 11:13:17;;;;;;;6.50;0.70;;;22.90;99.90;;;;;;4231639;28;20576;-87
2023/10/12 11:15:20;;;;;;;4.32;0.70;;;23.00;99.90;;;;;;4234388;28;20044;-87
2023/10/12 11:17:21;;;;;;;3.05;0.82;;;23.10;99.90;;;;;;4236643;28;20115;-87
2023/10/12 11:19:23;;;;;;;3.83;1.00;;;23.20;99.90;;;;;;4234901;28;20078;-87
2023/10/12 11:21:28;;;;;;;7.30;1.23;;;23.20;99.90;;;;;;4234283;28;20044;-87
2023/10/12 11:23:29;;;;;;;4.07;1.10;;;23.20;99.90;;;;;;4233664;28;20070;-85
2023/10/12 11:25:36;;;;;;;8.00;0.73;;;23.40;99.90;;;;;;4234667;27;20039;-85
2023/10/12 11:27:41;;;;;;;4.22;0.70;;;23.30;99.90;;;;;;4234495;28;20464;-85
2023/10/12 11:29:52;;;;;;;5.93;1.15;;;23.10;99.90;;;;;;4235583;28;20048;-85
2023/10/12 11:32:10;;;;;;;4.57;1.00;;;22.70;99.90;;;;;;4222484;28;20082;-85
2023/10/12 11:34:21;;;;;;;8.50;1.20;;;22.30;99.90;;;;;;4234282;28;20042;-85
2023/10/12 11:36:24;;;;;;;8.15;1.35;;;21.90;99.90;;;;;;4233016;28;20062;-85
2023/10/12 11:38:24;;;;;;;3.90;0.70;;;21.40;99.90;;;;;;4233269;28;20062;-85
2023/10/12 11:40:29;;;;;;;7.80;1.10;;;21.00;99.90;;;;;;4232859;28;20039;-85
2023/10/12 11:42:30;;;;;;;5.07;1.05;;;20.90;99.90;;;;;;4232883;28;20105;-83
2023/10/12 11:44:51;;;;;;;8.50;1.17;;;20.80;99.90;;;;;;4215159;28;20520;-86
2023/10/12 11:46:58;;;;;;;5.53;0.80;;;20.70;99.90;;;;;;4232774;28;20115;-85
2023/10/12 11:49:04;;;;;;;7.03;1.73;;;20.50;99.90;;;;;;4231218;28;20054;-85
2023/10/12 11:51:12;;;;;;;4.72;0.90;;;20.50;99.90;;;;;;4216277;28;20569;-86
2023/10/12 11:53:17;;;;;;;7.35;1.08;;;20.50;99.90;;;;;;4215019;28;20038;-86
2023/10/12 11:55:19;;;;;;;8.50;0.82;;;20.40;99.90;;;;;;4215809;28;20048;-86
2023/10/12 11:57:20;;;;;;;5.03;0.93;;;20.40;99.90;;;;;;4233590;28;20047;-86
2023/10/12 11:59:26;;;;;;;5.30;0.82;;;20.40;99.90;;;;;;4214271;28;20044;-86
2023/10/12 12:01:28;;;;;;;8.05;0.82;;;20.40;99.90;;;;;;4226668;28;20109;-86
2023/10/12 12:03:36;;;;;;;6.45;0.80;;;20.40;99.90;;;;;;4216844;28;20105;-86
2023/10/12 12:05:37;;;;;;;6.63;1.30;;;20.30;99.90;;;;;;4215563;28;20101;-84
2023/10/12 12:07:39;;;;;;;6.35;1.08;;;20.20;99.90;;;;;;4215091;28;20508;-84
2023/10/12 12:09:40;;;;;;;3.00;0.70;;;20.10;99.90;;;;;;4216227;28;20052;-84
2023/10/12 12:11:42;;;;;;;10.13;1.42;;;19.90;99.90;;;;;;4216615;28;20043;-84
2023/10/12 12:13:47;;;;;;;6.07;0.88;;;19.80;99.90;;;;;;4221287;28;20105;-85
2023/10/12 12:15:48;;;;;;;4.15;1.00;;;19.70;99.90;;;;;;4225966;28;20046;-85
2023/10/12 12:17:49;;;;;;;8.30;0.82;;;19.60;99.90;;;;;;4235727;28;20127;-85
2023/10/12 12:19:50;;;;;;;9.77;1.13;;;19.60;99.90;;;;;;4240234;28;20051;-82
2023/10/12 12:21:52;;;;;;;16.15;1.30;;;19.60;99.90;;;;;;4245896;28;20039;-83
2023/10/12 12:23:53;;;;;;;4.88;0.90;;;19.60;99.90;;;;;;4223173;28;20051;-85
2023/10/12 12:26:04;;;;;;;5.25;1.10;;;19.60;99.90;;;;;;4232961;28;20054;-85
2023/10/12 12:28:07;;;;;;;7.63;1.00;;;19.60;99.90;;;;;;4234055;28;20108;-85
2023/10/12 12:30:09;;;;;;;9.52;1.15;;;19.60;99.90;;;;;;4231502;28;20040;-86
2023/10/12 12:32:18;;;;;;;5.15;1.20;;;19.60;99.90;;;;;;4242782;28;20092;-87